Time;durP1;ratioP1;P1;durP2;ratioP2;P2;SDS_P1;SDS_P2;PMS_P1;PMS_P2;Temp;Humidity;BMP_temperature;BMP_pressure;BME280_temperature;BME280_humidity;BME280_pressure;Samples;Min_cycle;Max_cycle;Signal;HPM_P1;HPM_P2
2023/09/05 00:00:13;;;;;;;;;8.33;6.67;;;;;25.37;100.00;101229.22;5066965;28;45546;-74
2023/09/05 00:02:43;;;;;;;;;7.33;6.00;;;;;25.32;100.00;101237.50;5071564;28;45436;-74
2023/09/05 00:05:09;;;;;;;;;7.00;6.00;;;;;25.35;100.00;101233.78;5072565;27;45515;-74
2023/09/05 00:07:39;;;;;;;;;4.33;4.00;;;;;25.31;100.00;101230.34;5072248;28;46591;-75
2023/09/05 00:10:10;;;;;;;;;5.33;5.00;;;;;25.30;100.00;101233.09;5072782;27;45464;-74
2023/09/05 00:12:40;;;;;;;;;5.00;5.00;;;;;25.25;100.00;101233.34;5068609;28;45418;-74
2023/09/05 00:15:07;;;;;;;;;5.00;5.00;;;;;25.25;100.00;101230.63;5088516;27;45445;-74
2023/09/05 00:17:33;;;;;;;;;7.00;5.33;;;;;25.20;100.00;101239.88;5072427;27;45462;-73
2023/09/05 00:19:58;;;;;;;;;5.33;5.33;;;;;25.15;100.00;101231.97;5072896;28;45556;-75
2023/09/05 00:22:23;;;;;;;;;5.00;5.00;;;;;25.17;100.00;101232.78;5071152;28;66444;-74
2023/09/05 00:24:49;;;;;;;;;4.67;4.67;;;;;25.17;100.00;101227.38;5071822;27;47792;-74
2023/09/05 00:27:14;;;;;;;;;5.00;5.00;;;;;25.08;100.00;101219.66;5069822;27;71552;-74
2023/09/05 00:29:41;;;;;;;;;6.67;5.00;;;;;25.10;100.00;101225.00;5071846;27;45506;-74
2023/09/05 00:32:07;;;;;;;;;5.00;5.00;;;;;25.07;100.00;101226.88;5072683;28;45552;-73
2023/09/05 00:34:35;;;;;;;;;4.67;4.67;;;;;25.04;100.00;101229.69;5066544;28;45560;-74
2023/09/05 00:37:01;;;;;;;;;6.00;5.00;;;;;25.02;100.00;101228.88;5072102;28;46439;-74
2023/09/05 00:39:27;;;;;;;;;4.00;4.00;;;;;25.03;100.00;101224.34;5069806;28;45504;-74
2023/09/05 00:41:55;;;;;;;;;9.00;7.00;;;;;25.01;100.00;101228.94;5071947;28;45448;-74
2023/09/05 00:44:20;;;;;;;;;6.00;5.00;;;;;24.98;100.00;101221.84;5070334;28;45544;-74
2023/09/05 00:46:46;;;;;;;;;7.33;5.67;;;;;24.98;100.00;101229.97;5069934;28;70165;-74
2023/09/05 00:49:15;;;;;;;;;5.33;5.33;;;;;24.97;100.00;101227.31;5070704;27;45384;-74
2023/09/05 00:51:43;;;;;;;;;4.33;4.33;;;;;24.95;100.00;101221.97;5066301;27;45594;-74
2023/09/05 00:54:09;;;;;;;;;5.33;5.33;;;;;24.94;100.00;101216.66;5070304;28;45437;-74
2023/09/05 00:56:35;;;;;;;;;6.33;6.00;;;;;24.93;100.00;101214.88;5070299;28;46545;-74
2023/09/05 00:59:01;;;;;;;;;6.00;6.00;;;;;24.90;100.00;101226.69;5070288;27;45462;-74
2023/09/05 01:01:27;;;;;;;;;6.00;6.00;;;;;24.87;100.00;101220.53;5072257;27;45470;-74
2023/09/05 01:03:55;;;;;;;;;5.33;5.00;;;;;24.85;100.00;101228.72;5068025;28;45589;-74
2023/09/05 01:06:27;;;;;;;;;5.00;5.00;;;;;24.82;100.00;101221.63;5069223;28;47578;-74
2023/09/05 01:08:58;;;;;;;;;5.00;5.00;;;;;24.82;100.00;101221.63;5068561;28;45530;-74
2023/09/05 01:11:24;;;;;;;;;3.00;3.00;;;;;24.78;100.00;101222.69;5070791;28;45601;-74
2023/09/05 01:13:49;;;;;;;;;6.67;6.33;;;;;24.76;100.00;101216.47;5070458;27;65959;-74
2023/09/05 01:16:15;;;;;;;;;5.00;5.00;;;;;24.73;100.00;101222.00;5070579;28;73118;-74
2023/09/05 01:18:41;;;;;;;;;5.33;4.00;;;;;24.72;100.00;101220.25;5071226;27;45433;-74
2023/09/05 01:21:15;;;;;;;;;7.33;6.00;;;;;24.69;100.00;101220.38;5071782;27;45395;-75
2023/09/05 01:23:55;;;;;;;;;5.00;5.00;;;;;24.67;100.00;101224.09;5072407;28;45362;-74
2023/09/05 01:26:21;;;;;;;;;5.00;5.00;;;;;24.62;100.00;101218.88;5065137;28;46390;-74
2023/09/05 01:28:49;;;;;;;;;6.00;6.00;;;;;24.58;100.00;101210.97;5068822;28;70722;-74
2023/09/05 01:31:15;;;;;;;;;5.00;5.00;;;;;24.60;100.00;101215.34;5067704;28;45488;-74
2023/09/05 01:33:41;;;;;;;;;6.67;6.67;;;;;24.58;100.00;101216.38;5065671;28;45592;-75
2023/09/05 01:36:07;;;;;;;;;6.00;6.00;;;;;24.54;100.00;101215.59;5069606;28;46610;-74
2023/09/05 01:38:33;;;;;;;;;7.67;6.67;;;;;24.52;100.00;101217.50;5073095;27;45524;-74
2023/09/05 01:40:58;;;;;;;;;6.00;6.00;;;;;24.51;100.00;101207.63;5073834;28;45624;-75
2023/09/05 01:43:24;;;;;;;;;7.00;5.33;;;;;24.47;100.00;101204.19;5072779;28;66793;-75
2023/09/05 01:45:49;;;;;;;;;7.00;5.33;;;;;24.45;100.00;101208.78;5073977;27;73779;-74
2023/09/05 01:48:14;;;;;;;;;6.00;6.00;;;;;24.43;100.00;101202.53;5073875;27;67848;-74
2023/09/05 01:50:40;;;;;;;;;5.00;5.00;;;;;24.38;100.00;101199.16;5074611;27;45420;-74
2023/09/05 01:53:05;;;;;;;;;7.67;6.00;;;;;24.37;100.00;101204.63;5074313;27;62086;-74
2023/09/05 01:55:30;;;;;;;;;7.33;7.33;;;;;24.36;100.00;101189.38;5074234;27;47290;-73
2023/09/05 01:57:55;;;;;;;;;7.00;7.00;;;;;24.28;100.00;101190.50;5074114;27;66465;-74
2023/09/05 02:00:21;;;;;;;;;6.00;5.00;;;;;24.28;100.00;101189.63;5069314;27;65287;-74
2023/09/05 02:02:47;;;;;;;;;7.00;7.00;;;;;24.25;100.00;101187.94;5075078;27;45576;-74
2023/09/05 02:05:12;;;;;;;;;4.33;4.33;;;;;24.27;100.00;101185.16;5074155;27;46482;-75
2023/09/05 02:07:38;;;;;;;;;4.00;4.00;;;;;24.26;100.00;101188.81;5073781;28;45434;-75
2023/09/05 02:10:05;;;;;;;;;4.33;4.33;;;;;24.25;100.00;101184.38;5074319;28;45490;-73
2023/09/05 02:12:31;;;;;;;;;6.33;6.33;;;;;24.24;100.00;101182.63;5073256;28;45423;-74
2023/09/05 02:14:56;;;;;;;;;5.00;5.00;;;;;24.27;100.00;101175.25;5074300;27;45410;-74
2023/09/05 02:17:21;;;;;;;;;5.33;5.00;;;;;24.27;100.00;101186.03;5073226;27;65557;-74
2023/09/05 02:19:47;;;;;;;;;5.00;5.00;;;;;24.24;100.00;101179.91;5072902;28;63193;-74
2023/09/05 02:22:12;;;;;;;;;7.00;6.00;;;;;24.26;100.00;101184.28;5074005;28;56986;-75
2023/09/05 02:24:37;;;;;;;;;6.00;5.00;;;;;24.26;100.00;101187.00;5072822;28;68999;-74
2023/09/05 02:27:03;;;;;;;;;6.00;6.00;;;;;24.26;100.00;101188.81;5071841;28;68290;-74
2023/09/05 02:29:28;;;;;;;;;7.00;7.00;;;;;24.25;100.00;101187.94;5074241;27;45945;-74
2023/09/05 02:31:54;;;;;;;;;5.00;5.00;;;;;24.23;100.00;101188.94;5073519;28;56787;-74
2023/09/05 02:34:19;;;;;;;;;7.00;7.00;;;;;24.24;100.00;101186.19;5071951;28;66609;-74
2023/09/05 02:36:44;;;;;;;;;7.00;6.00;;;;;24.20;100.00;101186.38;5073065;27;68349;-74
2023/09/05 02:39:10;;;;;;;;;6.00;6.00;;;;;24.18;100.00;101178.34;5072915;27;64154;-74
2023/09/05 02:41:35;;;;;;;;;5.33;4.33;;;;;24.16;100.00;101174.81;5073707;28;45645;-74
2023/09/05 02:44:01;;;;;;;;;6.00;5.00;;;;;24.15;100.00;101181.16;5073996;28;46718;-73
2023/09/05 02:46:26;;;;;;;;;7.00;6.33;;;;;24.14;100.00;101179.41;5073182;28;45524;-74
2023/09/05 02:48:52;;;;;;;;;6.33;6.33;;;;;24.12;100.00;101188.47;5073395;28;45460;-74
2023/09/05 02:51:17;;;;;;;;;6.33;5.00;;;;;24.09;100.00;101184.09;5074158;27;45510;-73
2023/09/05 02:53:42;;;;;;;;;4.67;4.67;;;;;24.10;100.00;101185.84;5072575;28;66027;-74
2023/09/05 02:56:07;;;;;;;;;6.67;6.00;;;;;24.07;100.00;101187.78;5071507;28;61574;-73
2023/09/05 02:58:33;;;;;;;;;10.00;7.00;;;;;24.09;100.00;101188.63;5070558;27;54565;-74
2023/09/05 03:01:04;;;;;;;;;7.67;6.00;;;;;24.09;100.00;101185.91;5072555;28;45593;-74
2023/09/05 03:03:30;;;;;;;;;6.00;6.00;;;;;24.07;100.00;101182.38;5073814;27;46639;-75
2023/09/05 03:05:56;;;;;;;;;8.00;6.00;;;;;24.03;100.00;101176.25;5072742;28;45426;-74
2023/09/05 03:08:22;;;;;;;;;6.67;6.33;;;;;24.00;100.00;101179.94;5073442;28;45532;-74
2023/09/05 03:10:51;;;;;;;;;7.00;7.00;;;;;23.97;100.00;101181.84;5073130;28;45619;-74
2023/09/05 03:13:18;;;;;;;;;6.67;6.00;;;;;23.95;100.00;101192.72;5068633;28;47556;-75
2023/09/05 03:15:43;;;;;;;;;5.67;5.67;;;;;23.93;100.00;101182.94;5071352;28;45830;-73
2023/09/05 03:18:08;;;;;;;;;6.33;5.00;;;;;23.91;100.00;101182.09;5071970;27;54784;-74
2023/09/05 03:20:33;;;;;;;;;9.00;7.33;;;;;23.90;100.00;101175.81;5068986;28;64812;-74
2023/09/05 03:22:59;;;;;;;;;9.67;5.67;;;;;23.88;100.00;101172.31;5071362;28;69168;-74
2023/09/05 03:25:24;;;;;;;;;6.00;6.00;;;;;23.86;100.00;101167.91;5073564;27;45424;-74
2023/09/05 03:27:50;;;;;;;;;6.67;6.00;;;;;23.82;100.00;101164.47;5073157;28;45567;-74
2023/09/05 03:30:15;;;;;;;;;5.33;5.00;;;;;23.79;100.00;101162.75;5072958;28;45510;-74
2023/09/05 03:32:40;;;;;;;;;7.33;7.33;;;;;23.78;100.00;101171.78;5068446;28;48412;-75
2023/09/05 03:35:06;;;;;;;;;7.00;7.00;;;;;23.78;100.00;101171.78;5066335;28;45354;-74
2023/09/05 03:37:31;;;;;;;;;8.33;6.33;;;;;23.78;100.00;101170.91;5068843;28;45609;-74
2023/09/05 03:39:57;;;;;;;;;7.00;6.00;;;;;23.78;100.00;101179.00;5066981;28;61655;-74
2023/09/05 03:42:22;;;;;;;;;10.00;6.33;;;;;23.73;100.00;101170.22;5072138;27;74339;-75
2023/09/05 03:44:47;;;;;;;;;7.00;7.00;;;;;23.70;100.00;101164.94;5072472;27;45463;-74
2023/09/05 03:47:13;;;;;;;;;10.00;6.33;;;;;23.66;100.00;101160.63;5066883;28;65745;-74
2023/09/05 03:49:38;;;;;;;;;6.00;6.00;;;;;23.67;100.00;101141.66;5071945;28;45452;-74
2023/09/05 03:52:04;;;;;;;;;7.33;7.33;;;;;23.65;100.00;101137.25;5072218;27;66778;-74
2023/09/05 03:54:29;;;;;;;;;9.33;8.00;;;;;23.64;100.00;101139.06;5072169;28;45486;-74
2023/09/05 03:56:55;;;;;;;;;6.00;6.00;;;;;23.62;100.00;101135.53;5072347;28;65490;-74
2023/09/05 03:59:20;;;;;;;;;9.00;8.00;;;;;23.59;100.00;101142.84;5071578;28;61118;-75
2023/09/05 04:01:50;;;;;;;;;7.33;7.33;;;;;23.58;100.00;101144.69;5071341;28;48811;-74
2023/09/05 04:04:15;;;;;;;;;5.67;5.67;;;;;23.57;100.00;101133.97;5072950;28;46040;-74
2023/09/05 04:06:41;;;;;;;;;9.00;7.00;;;;;23.55;100.00;101130.47;5071014;27;61852;-74
2023/09/05 04:09:06;;;;;;;;;7.67;7.67;;;;;23.53;100.00;101131.38;5072029;28;45535;-74
2023/09/05 04:11:32;;;;;;;;;7.33;6.00;;;;;23.53;100.00;101130.50;5071169;28;46484;-74
2023/09/05 04:13:58;;;;;;;;;6.00;5.33;;;;;23.53;100.00;101127.78;5071687;28;45529;-74
2023/09/05 04:16:23;;;;;;;;;8.33;7.67;;;;;23.50;100.00;101128.81;5072235;27;62076;-74
2023/09/05 04:18:48;;;;;;;;;7.33;6.67;;;;;23.47;100.00;101131.59;5072359;27;45436;-74
2023/09/05 04:21:14;;;;;;;;;8.00;6.67;;;;;23.47;100.00;101144.22;5071891;27;62039;-74
2023/09/05 04:23:39;;;;;;;;;8.00;7.00;;;;;23.46;100.00;101148.72;5068699;27;69293;-74
2023/09/05 04:26:04;;;;;;;;;8.67;8.33;;;;;23.46;100.00;101151.41;5068460;28;65621;-74
2023/09/05 04:28:30;;;;;;;;;8.00;8.00;;;;;23.44;100.00;101155.13;5069900;27;45578;-74
2023/09/05 04:31:01;;;;;;;;;8.00;8.00;;;;;23.47;100.00;101153.16;5071976;27;46338;-74
2023/09/05 04:33:27;;;;;;;;;9.00;9.00;;;;;23.44;100.00;101156.00;5071896;28;46323;-75
2023/09/05 04:35:52;;;;;;;;;13.00;8.00;;;;;23.42;100.00;101162.38;5072538;27;45759;-74
2023/09/05 04:38:17;;;;;;;;;9.00;7.67;;;;;23.37;100.00;101164.34;5072389;27;45485;-74
2023/09/05 04:40:43;;;;;;;;;7.33;7.33;;;;;23.40;100.00;101169.63;5070818;27;47334;-74
2023/09/05 04:43:08;;;;;;;;;12.00;8.00;;;;;23.38;100.00;101175.06;5071180;27;69257;-74
2023/09/05 04:45:33;;;;;;;;;6.67;6.67;;;;;23.33;100.00;101181.56;5068428;27;63940;-74
2023/09/05 04:47:59;;;;;;;;;7.33;7.33;;;;;23.32;100.00;101182.50;5069581;28;62096;-74
2023/09/05 04:50:24;;;;;;;;;6.33;6.33;;;;;23.29;100.00;101182.63;5072549;28;45615;-74
2023/09/05 04:52:50;;;;;;;;;6.00;6.00;;;;;23.25;100.00;101182.72;5071688;27;45442;-74
2023/09/05 04:55:15;;;;;;;;;9.33;8.00;;;;;23.22;100.00;101193.63;5071565;28;45728;-74
2023/09/05 04:57:42;;;;;;;;;6.33;6.33;;;;;23.23;100.00;101199.91;5070781;27;61502;-74
2023/09/05 05:00:08;;;;;;;;;7.33;6.33;;;;;23.21;100.00;101204.44;5067089;28;46642;-74
2023/09/05 05:02:34;;;;;;;;;8.33;7.33;;;;;23.11;100.00;101203.88;5071426;27;45496;-74
2023/09/05 05:05:00;;;;;;;;;9.00;8.00;;;;;23.09;100.00;101208.44;5068058;22;46226;-74
2023/09/05 05:07:25;;;;;;;;;11.33;9.00;;;;;23.07;100.00;101213.03;5046680;28;61941;-74
2023/09/05 05:09:51;;;;;;;;;8.00;7.00;;;;;23.06;100.00;101216.63;5050191;28;45616;-74
2023/09/05 05:12:16;;;;;;;;;12.33;8.00;;;;;23.01;100.00;101215.94;5039740;28;67525;-74
2023/09/05 05:14:41;;;;;;;;;6.00;6.00;;;;;23.02;100.00;101208.72;5041996;28;58739;-74
2023/09/05 05:17:07;;;;;;;;;7.00;7.00;;;;;23.03;100.00;101205.97;5050435;28;64365;-74
2023/09/05 05:19:32;;;;;;;;;10.67;7.67;;;;;22.98;100.00;101211.50;5046236;28;46467;-74
2023/09/05 05:21:58;;;;;;;;;7.33;7.33;;;;;22.99;100.00;101213.28;5045385;28;67925;-74
2023/09/05 05:24:24;;;;;;;;;10.00;10.00;;;;;23.00;100.00;101219.53;5043828;28;45499;-73
2023/09/05 05:26:49;;;;;;;;;8.67;7.33;;;;;23.01;100.00;101224.00;5053205;28;45684;-73
2023/09/05 05:29:15;;;;;;;;;8.00;8.00;;;;;22.94;100.00;101222.44;5044551;28;47351;-74
2023/09/05 05:31:40;;;;;;;;;12.67;9.00;;;;;22.95;100.00;101219.69;5044172;28;45557;-74
2023/09/05 05:34:06;;;;;;;;;10.00;10.00;;;;;23.00;100.00;101220.41;5047670;28;45737;-73
2023/09/05 05:36:32;;;;;;;;;7.67;7.00;;;;;22.99;100.00;101218.66;5047183;28;45418;-74
2023/09/05 05:39:01;;;;;;;;;10.00;7.67;;;;;23.01;100.00;101210.53;5039797;28;46361;-73
2023/09/05 05:41:27;;;;;;;;;12.33;7.00;;;;;22.97;100.00;101214.28;5052032;28;45490;-74
2023/09/05 05:43:53;;;;;;;;;8.67;6.00;;;;;22.98;100.00;101216.91;5038313;28;47123;-74
2023/09/05 05:46:19;;;;;;;;;7.33;7.33;;;;;23.00;100.00;101219.53;5052132;28;45554;-74
2023/09/05 05:48:45;;;;;;;;;8.00;6.67;;;;;23.05;100.00;101216.69;5042809;28;45822;-74
2023/09/05 05:51:11;;;;;;;;;8.00;6.67;;;;;23.03;100.00;101208.66;5048210;28;45407;-74
2023/09/05 05:53:36;;;;;;;;;8.00;8.00;;;;;23.07;100.00;101210.34;5046919;28;45588;-73
2023/09/05 05:56:04;;;;;;;;;8.33;8.33;;;;;23.09;100.00;101207.56;5047448;28;46059;-75
2023/09/05 05:58:30;;;;;;;;;9.00;8.00;;;;;23.12;100.00;101216.44;5048675;28;46724;-73
2023/09/05 06:00:55;;;;;;;;;9.67;8.00;;;;;23.16;100.00;101219.88;5039428;28;45567;-74
2023/09/05 06:03:21;;;;;;;;;14.67;9.33;;;;;23.17;100.00;101218.94;5038766;28;45340;-74
2023/09/05 06:05:47;;;;;;;;;10.33;8.33;;;;;23.20;100.00;101214.34;5046947;28;45569;-74
2023/09/05 06:08:13;;;;;;;;;9.67;8.00;;;;;23.25;100.00;101215.06;5047360;28;46819;-74
2023/09/05 06:10:38;;;;;;;;;8.00;7.33;;;;;23.28;100.00;101214.09;5045877;28;45524;-74
2023/09/05 06:13:04;;;;;;;;;12.33;9.00;;;;;23.30;100.00;101220.28;5045700;28;63868;-73
2023/09/05 06:15:33;;;;;;;;;12.67;11.33;;;;;23.30;100.00;101214.91;5047025;28;45573;-74
2023/09/05 06:18:00;;;;;;;;;10.00;10.00;;;;;23.28;100.00;101227.56;5051483;28;47691;-74
2023/09/05 06:20:25;;;;;;;;;9.67;8.67;;;;;23.29;100.00;101233.81;5043835;28;45857;-74
2023/09/05 06:22:50;;;;;;;;;13.00;10.00;;;;;23.25;100.00;101241.13;5043020;28;45693;-74
2023/09/05 06:25:16;;;;;;;;;8.00;7.00;;;;;23.29;100.00;101244.59;5045850;28;46788;-74
2023/09/05 06:27:43;;;;;;;;;10.33;10.33;;;;;23.25;100.00;101239.31;5040546;28;46720;-74
2023/09/05 06:30:12;;;;;;;;;11.00;10.00;;;;;23.23;100.00;101243.88;5046132;28;45453;-74
2023/09/05 06:32:37;;;;;;;;;11.67;9.00;;;;;23.24;100.00;101245.63;5038535;28;45433;-74
2023/09/05 06:35:05;;;;;;;;;7.00;7.00;;;;;23.27;100.00;101231.16;5050857;28;45472;-74
2023/09/05 06:37:32;;;;;;;;;9.33;8.00;;;;;23.26;100.00;101232.97;5050190;28;47355;-74
2023/09/05 06:39:58;;;;;;;;;9.67;9.00;;;;;23.26;100.00;101237.50;5051369;28;45470;-73
2023/09/05 06:42:23;;;;;;;;;11.00;9.67;;;;;23.27;100.00;101231.16;5038366;28;59194;-78
2023/09/05 06:44:49;;;;;;;;;10.00;8.00;;;;;23.34;100.00;101238.13;5046285;28;62252;-77
2023/09/05 06:47:14;;;;;;;;;8.00;7.00;;;;;23.43;100.00;101237.75;5044731;28;46304;-76
2023/09/05 06:49:39;;;;;;;;;8.67;7.67;;;;;23.48;100.00;101235.78;5044486;28;45505;-77
2023/09/05 06:52:05;;;;;;;;;10.00;7.33;;;;;23.61;100.00;101235.34;5042825;28;45947;-77
2023/09/05 06:54:31;;;;;;;;;7.67;7.00;;;;;23.71;100.00;101240.38;5043945;28;45462;-77
2023/09/05 06:56:57;;;;;;;;;6.00;6.00;;;;;23.79;100.00;101240.97;5043653;28;47817;-80
2023/09/05 06:59:22;;;;;;;;;8.33;6.67;;;;;23.91;100.00;101239.63;5044444;28;45424;-77
2023/09/05 07:01:47;;;;;;;;;7.00;6.00;;;;;24.00;100.00;101233.00;5049232;28;60948;-76
2023/09/05 07:04:13;;;;;;;;;9.33;8.00;;;;;24.11;100.00;101227.19;5039448;28;45440;-77
2023/09/05 07:06:39;;;;;;;;;8.33;7.00;;;;;24.20;100.00;101233.13;5046664;28;47536;-77
2023/09/05 07:09:06;;;;;;;;;6.00;5.00;;;;;24.31;100.00;101232.69;5041239;28;45513;-76
2023/09/05 07:11:31;;;;;;;;;7.00;6.67;;;;;24.38;100.00;101231.53;5044512;28;45809;-76
2023/09/05 07:13:57;;;;;;;;;7.33;7.00;;;;;24.47;100.00;101230.28;5044524;28;45539;-78
2023/09/05 07:16:22;;;;;;;;;7.00;7.00;;;;;24.56;100.00;101230.81;5046488;28;45577;-78
2023/09/05 07:18:47;;;;;;;;;12.33;7.67;;;;;24.66;100.00;101238.50;5040112;28;65479;-77
2023/09/05 07:21:13;;;;;;;;;9.33;7.67;;;;;24.73;100.00;101231.94;5046127;28;45828;-77
2023/09/05 07:23:38;;;;;;;;;7.00;7.00;;;;;24.79;100.00;101242.47;5041740;28;45490;-82
2023/09/05 07:26:05;;;;;;;;;8.00;8.00;;;;;24.85;100.00;101244.91;5043464;28;46885;-78
2023/09/05 07:28:30;;;;;;;;;9.00;7.33;;;;;24.94;100.00;101249.94;5040542;28;45820;-78
2023/09/05 07:30:56;;;;;;;;;6.33;6.33;;;;;24.97;100.00;101247.09;5046326;28;45521;-77
2023/09/05 07:33:22;;;;;;;;;6.33;5.33;;;;;25.06;100.00;101253.97;5037061;28;45578;-78
2023/09/05 07:35:47;;;;;;;;;8.33;7.00;;;;;25.10;100.00;101247.50;5050902;28;48207;-78
2023/09/05 07:38:14;;;;;;;;;7.33;7.00;;;;;25.17;100.00;101238.19;5044913;28;65083;-76
2023/09/05 07:40:40;;;;;;;;;7.67;7.67;;;;;25.20;100.00;101240.75;5047885;28;45524;-77
2023/09/05 07:43:05;;;;;;;;;6.33;6.33;;;;;25.24;100.00;101236.94;5045922;28;45512;-76
2023/09/05 07:45:32;;;;;;;;;7.00;7.00;;;;;25.30;100.00;101234.00;5038111;28;60642;-78
2023/09/05 07:47:57;;;;;;;;;7.00;7.00;;;;;25.37;100.00;101240.03;5040843;28;45553;-77
2023/09/05 07:50:23;;;;;;;;;9.00;8.00;;;;;25.44;100.00;101236.09;5039954;28;64799;-76
2023/09/05 07:52:48;;;;;;;;;8.67;6.00;;;;;25.49;100.00;101246.69;5046239;28;60645;-78
2023/09/05 07:55:14;;;;;;;;;7.67;7.67;;;;;25.53;100.00;101240.22;5040056;28;62909;-77
2023/09/05 07:57:39;;;;;;;;;6.00;6.00;;;;;25.58;100.00;101236.38;5039238;28;45482;-76
2023/09/05 08:00:08;;;;;;;;;8.00;7.67;;;;;25.64;100.00;101232.50;5046349;28;63284;-77
2023/09/05 08:02:34;;;;;;;;;6.67;6.67;;;;;25.74;100.00;101232.97;5047039;28;45489;-76
2023/09/05 08:04:59;;;;;;;;;8.00;8.00;;;;;25.80;100.00;101232.72;5039628;28;72996;-77
2023/09/05 08:07:25;;;;;;;;;9.00;8.00;;;;;25.85;100.00;101241.50;5047976;28;45485;-79
2023/09/05 08:09:50;;;;;;;;;8.00;8.00;;;;;25.92;100.00;101237.53;5048899;28;45418;-78
2023/09/05 08:12:17;;;;;;;;;7.00;7.00;;;;;26.00;100.00;101238.09;5042805;28;45538;-79
2023/09/05 08:14:43;;;;;;;;;9.00;8.33;;;;;26.06;100.00;101237.78;5034973;28;47726;-77
2023/09/05 08:17:08;;;;;;;;;7.00;7.00;;;;;26.11;100.00;101235.75;5046093;28;46943;-78
2023/09/05 08:19:33;;;;;;;;;7.33;6.33;;;;;26.20;100.00;101241.66;5046814;28;45332;-79
2023/09/05 08:21:59;;;;;;;;;7.00;6.00;;;;;26.23;100.00;101236.97;5049218;28;45601;-80
2023/09/05 08:24:24;;;;;;;;;9.00;7.67;;;;;26.28;100.00;101240.34;5051762;28;49810;-78
2023/09/05 08:26:49;;;;;;;;;6.67;5.33;;;;;26.34;100.00;101240.06;5039700;28;45404;-78
2023/09/05 08:29:15;;;;;;;;;10.00;7.67;;;;;26.41;100.00;101246.03;5043092;28;65365;-78
2023/09/05 08:31:40;;;;;;;;;7.67;6.00;;;;;26.48;100.00;101247.56;5036881;28;53099;-77
2023/09/05 08:34:07;;;;;;;;;6.33;6.33;;;;;26.56;100.00;101237.19;5047336;28;45457;-76
2023/09/05 08:36:32;;;;;;;;;10.00;7.00;;;;;26.65;100.00;101238.59;5045272;28;45850;-78
2023/09/05 08:38:57;;;;;;;;;8.00;8.00;;;;;26.70;100.00;101241.94;5041028;28;64570;-78
2023/09/05 08:41:23;;;;;;;;;9.33;7.00;;;;;26.76;100.00;101246.19;5044750;28;45401;-78
2023/09/05 08:43:48;;;;;;;;;10.33;7.00;;;;;26.81;100.00;101245.00;5042292;28;66975;-79
2023/09/05 08:46:14;;;;;;;;;10.33;7.33;;;;;26.88;100.00;101238.31;5037541;28;63963;-78
2023/09/05 08:48:40;;;;;;;;;7.33;7.33;;;;;26.96;100.00;101248.78;5053740;28;63399;-77
2023/09/05 08:51:06;;;;;;;;;9.00;7.00;;;;;26.99;100.00;101243.19;5045945;28;61673;-78
2023/09/05 08:53:36;;;;;;;;;9.00;8.00;;;;;27.07;100.00;101254.56;5042633;28;45858;-77
2023/09/05 08:56:01;;;;;;;;;10.00;9.67;;;;;27.12;100.00;101244.34;5034868;28;47148;-77
2023/09/05 08:58:27;;;;;;;;;8.67;7.33;;;;;27.17;100.00;101251.38;5034391;28;45444;-79
2023/09/05 09:00:52;;;;;;;;;11.00;9.33;;;;;27.24;100.00;101255.53;5036011;28;45411;-78
2023/09/05 09:03:18;;;;;;;;;8.67;8.67;;;;;27.29;100.00;101256.16;5034070;28;72468;-78
2023/09/05 09:05:46;;;;;;;;;10.33;7.00;;;;;27.35;100.00;101254.00;5047057;28;68910;-78
2023/09/05 09:08:12;;;;;;;;;7.00;7.00;;;;;27.38;100.00;101253.84;5036801;28;45454;-78
2023/09/05 09:10:37;;;;;;;;;10.00;9.00;;;;;27.47;100.00;101262.44;5048023;28;45472;-77
2023/09/05 09:13:18;;;;;;;;;7.67;7.67;;;;;27.51;100.00;101255.91;5039839;28;50200;-77
2023/09/05 09:15:43;;;;;;;;;10.67;8.33;;;;;27.57;100.00;101251.03;5041493;28;45453;-80
2023/09/05 09:18:13;;;;;;;;;11.67;9.00;;;;;27.65;100.00;101261.50;5035170;28;45496;-76
2023/09/05 09:20:45;;;;;;;;;9.33;9.33;;;;;27.71;100.00;101258.47;5048167;28;45689;-79
2023/09/05 09:23:10;;;;;;;;;11.00;9.00;;;;;27.77;100.00;101255.44;5051915;28;46782;-78
2023/09/05 09:25:36;;;;;;;;;10.67;7.33;;;;;27.84;100.00;101261.41;5042884;28;45456;-78
2023/09/05 09:28:01;;;;;;;;;8.33;8.33;;;;;27.88;100.00;101258.44;5044243;28;45915;-76
2023/09/05 09:30:29;;;;;;;;;10.00;9.00;;;;;27.98;100.00;101245.25;5041423;28;63244;-78
2023/09/05 09:32:55;;;;;;;;;10.67;9.00;;;;;28.03;100.00;101253.13;5046780;28;46588;-78
2023/09/05 09:35:21;;;;;;;;;8.67;7.00;;;;;28.10;100.00;101244.56;5049959;28;45495;-77
2023/09/05 09:37:47;;;;;;;;;9.33;7.00;;;;;28.15;100.00;101249.72;5052355;28;45461;-78
2023/09/05 09:40:16;;;;;;;;;9.00;7.67;;;;;28.20;100.00;101239.50;5036082;28;45688;-78
2023/09/05 09:42:43;;;;;;;;;9.33;8.00;;;;;28.28;100.00;101242.63;5026786;28;45786;-76
2023/09/05 09:45:09;;;;;;;;;7.00;7.00;;;;;28.34;100.00;101242.34;5049628;28;45497;-75
2023/09/05 09:47:37;;;;;;;;;7.67;7.00;;;;;28.41;100.00;101246.47;5039925;28;45374;-76
2023/09/05 09:50:03;;;;;;;;;12.33;8.67;;;;;28.49;100.00;101240.56;5042931;28;45464;-75
2023/09/05 09:52:31;;;;;;;;;9.67;7.00;;;;;28.56;100.00;101232.97;5044108;28;47304;-76
2023/09/05 09:54:59;;;;;;;;;11.00;8.00;;;;;28.64;100.00;101227.94;5042052;28;45526;-76
2023/09/05 09:57:33;;;;;;;;;11.67;9.33;;;;;28.71;100.00;101230.22;5038091;28;45359;-77
2023/09/05 10:00:00;;;;;;;;;9.00;9.00;;;;;28.79;100.00;101237.06;5044319;28;45537;-78
2023/09/05 10:02:27;;;;;;;;;10.67;8.67;;;;;28.86;100.00;101227.56;5038146;28;46257;-76
2023/09/05 10:04:53;;;;;;;;;6.00;6.00;;;;;28.98;100.00;101235.03;5039077;28;45534;-78
2023/09/05 10:07:19;;;;;;;;;8.00;8.00;;;;;29.05;100.00;101238.25;5033519;28;64288;-77
2023/09/05 10:09:45;;;;;;;;;12.67;10.00;;;;;29.11;100.00;101230.59;5034431;28;63948;-80
2023/09/05 10:12:11;;;;;;;;;10.00;8.33;;;;;29.22;100.00;101228.09;5048021;28;46697;-77
2023/09/05 10:14:39;;;;;;;;;10.33;10.00;;;;;29.31;100.00;101240.28;5036541;28;45454;-77
2023/09/05 10:17:04;;;;;;;;;9.00;7.00;;;;;29.42;100.00;101232.34;5043813;28;45599;-77
2023/09/05 10:19:31;;;;;;;;;10.33;8.33;;;;;29.49;100.00;101233.69;5039164;28;45578;-79
2023/09/05 10:22:00;;;;;;;;;8.33;8.00;;;;;29.56;100.00;101227.91;5047211;28;45920;-79
2023/09/05 10:24:27;;;;;;;;;13.33;9.00;;;;;29.67;100.00;101222.66;5047974;28;45437;-77
2023/09/05 10:26:53;;;;;;;;;8.67;8.67;;;;;29.76;100.00;101224.81;5035012;28;45401;-80
2023/09/05 10:29:34;;;;;;;;;8.00;8.00;;;;;29.90;100.00;101215.78;5041192;28;46386;-78
2023/09/05 10:32:01;;;;;;;;;11.33;9.67;;;;;29.98;100.00;101221.59;5041404;28;47087;-78
2023/09/05 10:34:45;;;;;;;;;7.67;7.67;;;;;30.07;100.00;101214.69;5043269;28;45798;-78
2023/09/05 10:37:12;;;;;;;;;11.33;7.67;;;;;30.15;100.00;101218.72;5045835;28;45474;-77
2023/09/05 10:39:43;;;;;;;;;10.00;9.00;;;;;30.22;100.00;101209.16;5045539;28;45401;-77
2023/09/05 10:42:09;;;;;;;;;11.00;9.67;;;;;30.32;100.00;101217.63;5047160;28;46495;-78
2023/09/05 10:44:34;;;;;;;;;10.00;7.67;;;;;30.40;100.00;101208.91;5041027;28;61863;-77
2023/09/05 10:47:23;;;;;;;;;11.33;11.33;;;;;30.47;100.00;101205.72;5047375;28;45429;-76
2023/09/05 10:49:48;;;;;;;;;8.00;8.00;;;;;30.56;100.00;101197.88;5040528;28;46024;-76
2023/09/05 10:52:20;;;;;;;;;9.00;9.00;;;;;30.61;100.00;101204.75;5044910;28;47331;-77
2023/09/05 10:54:45;;;;;;;;;7.33;7.33;;;;;30.69;100.00;101207.00;5037870;28;45431;-77
2023/09/05 10:57:40;;;;;;;;;8.00;7.33;;;;;30.80;100.00;101198.13;5041253;28;45453;-77
2023/09/05 11:00:29;;;;;;;;;9.00;9.00;;;;;30.90;98.06;101201.97;5042689;28;45425;-77
2023/09/05 11:02:56;;;;;;;;;9.33;9.33;;;;;30.96;98.60;101205.16;5038106;28;47362;-78
2023/09/05 11:05:24;;;;;;;;;12.33;11.33;;;;;31.04;97.53;101207.34;5036048;28;45638;-77
2023/09/05 11:07:50;;;;;;;;;8.67;7.67;;;;;31.09;96.23;101205.16;5043618;28;45533;-78
2023/09/05 11:10:29;;;;;;;;;8.67;7.67;;;;;31.21;94.91;101212.47;5048427;28;45423;-76